createdAt,value
2023-03-25T00:02:17.793Z,11.00
2023-03-25T00:07:26.041Z,10.85
2023-03-25T00:12:33.765Z,10.64
2023-03-25T00:17:43.171Z,10.52
2023-03-25T00:22:50.568Z,10.49
2023-03-25T00:27:58.039Z,10.48
2023-03-25T00:33:05.743Z,10.50
2023-03-25T00:38:13.187Z,10.47
2023-03-25T00:43:20.608Z,10.42
2023-03-25T00:48:29.230Z,10.40
2023-03-25T00:53:37.654Z,10.45
2023-03-25T00:58:45.062Z,10.50
2023-03-25T01:03:58.139Z,10.55
2023-03-25T01:09:08.505Z,10.62
2023-03-25T01:14:17.418Z,10.66
2023-03-25T01:19:26.174Z,10.65
2023-03-25T01:24:35.048Z,10.70
2023-03-25T01:29:44.347Z,10.82
2023-03-25T01:34:51.880Z,10.86
2023-03-25T01:39:59.563Z,10.94
2023-03-25T01:45:27.788Z,11.02
2023-03-25T01:50:37.946Z,11.11
2023-03-25T01:55:46.555Z,11.15
2023-03-25T02:01:00.004Z,11.18
2023-03-25T02:06:11.448Z,11.20
2023-03-25T02:11:19.022Z,11.24
2023-03-25T02:16:34.134Z,11.28
2023-03-25T02:22:21.017Z,11.30
2023-03-25T02:27:48.248Z,11.30
2023-03-25T02:33:27.450Z,11.31
2023-03-25T02:38:41.974Z,11.34
2023-03-25T02:43:59.147Z,11.36
2023-03-25T02:49:11.004Z,11.36
2023-03-25T02:54:21.610Z,11.36
2023-03-25T02:59:33.420Z,11.37
2023-03-25T03:04:53.528Z,11.39
2023-03-25T03:10:13.778Z,11.45
2023-03-25T03:15:29.518Z,11.50
2023-03-25T03:20:42.326Z,11.51
2023-03-25T03:25:53.926Z,11.52
2023-03-25T03:31:07.141Z,11.53
2023-03-25T03:36:19.069Z,11.53
2023-03-25T03:41:30.040Z,11.53
2023-03-25T03:46:42.369Z,11.53
2023-03-25T03:51:54.590Z,11.55
2023-03-25T03:57:08.037Z,11.54
2023-03-25T04:02:27.542Z,11.51
2023-03-25T04:07:41.968Z,11.50
2023-03-25T04:12:53.006Z,11.47
2023-03-25T04:18:01.941Z,11.44
2023-03-25T04:23:10.871Z,11.40
2023-03-25T04:28:19.063Z,11.36
2023-03-25T04:33:26.928Z,11.34
2023-03-25T04:38:34.401Z,11.25
2023-03-25T04:43:42.007Z,11.09
2023-03-25T04:48:50.016Z,10.89
2023-03-25T04:53:57.550Z,10.67
2023-03-25T04:59:05.030Z,10.53
2023-03-25T05:04:14.555Z,10.40
2023-03-25T05:09:24.553Z,10.27
2023-03-25T05:14:32.270Z,10.19
2023-03-25T05:19:44.103Z,10.12
2023-03-25T05:24:53.709Z,10.09
2023-03-25T05:30:01.332Z,10.04
2023-03-25T05:35:10.790Z,10.00
2023-03-25T05:40:18.432Z,9.98
2023-03-25T05:45:26.240Z,9.94
2023-03-25T05:50:34.021Z,9.90
2023-03-25T05:55:42.421Z,9.88
2023-03-25T06:00:50.701Z,9.87
2023-03-25T06:05:59.716Z,9.85
2023-03-25T06:11:09.494Z,9.84
2023-03-25T06:16:18.727Z,9.81
2023-03-25T06:21:27.166Z,9.81
2023-03-25T06:26:34.598Z,9.83
2023-03-25T06:31:43.160Z,9.84
2023-03-25T06:36:50.510Z,9.86
2023-03-25T06:41:58.110Z,9.93
2023-03-25T06:47:06.868Z,10.04
2023-03-25T06:52:14.472Z,10.13
2023-03-25T06:57:21.964Z,10.17
2023-03-25T07:02:29.516Z,10.23
2023-03-25T07:07:36.893Z,10.28
2023-03-25T07:12:44.230Z,10.31
2023-03-25T07:17:51.476Z,10.36
2023-03-25T07:22:59.107Z,10.42
2023-03-25T07:28:07.162Z,10.51
2023-03-25T07:33:14.822Z,10.56
2023-03-25T07:38:22.845Z,10.60
2023-03-25T07:43:30.690Z,10.65
2023-03-25T07:48:38.334Z,10.74
2023-03-25T07:53:46.738Z,10.87
2023-03-25T07:58:54.446Z,10.99
2023-03-25T08:04:02.002Z,11.13
2023-03-25T08:09:09.969Z,11.28
2023-03-25T08:14:18.046Z,11.38
2023-03-25T08:19:28.714Z,11.45
2023-03-25T08:24:35.953Z,11.52
2023-03-25T08:29:43.755Z,11.63
2023-03-25T08:34:51.735Z,11.69
2023-03-25T08:39:59.173Z,11.79
2023-03-25T08:45:08.422Z,11.90
2023-03-25T08:50:16.245Z,11.99
2023-03-25T08:55:24.784Z,12.10
2023-03-25T09:00:33.348Z,12.22
2023-03-25T09:05:42.376Z,12.48
2023-03-25T09:10:49.974Z,12.63
2023-03-25T09:15:59.248Z,12.72
2023-03-25T09:21:08.087Z,12.83
2023-03-25T09:26:15.607Z,13.01
2023-03-25T09:31:23.316Z,13.16
2023-03-25T09:36:32.421Z,13.17
2023-03-25T09:41:59.276Z,13.17
2023-03-25T09:47:10.968Z,13.22
2023-03-25T09:52:27.949Z,13.31
2023-03-25T09:57:42.512Z,13.48
2023-03-25T10:02:56.311Z,13.60
2023-03-25T10:08:15.061Z,13.83
2023-03-25T10:13:29.060Z,14.04
2023-03-25T10:18:54.528Z,14.05
2023-03-25T10:24:14.505Z,14.03
2023-03-25T10:29:27.626Z,14.09
2023-03-25T10:34:40.928Z,14.30
2023-03-25T10:39:50.203Z,14.46
2023-03-25T10:44:59.559Z,14.66
2023-03-25T10:50:09.533Z,14.92
2023-03-25T10:55:26.650Z,15.15
2023-03-25T11:00:35.090Z,15.09
2023-03-25T11:05:42.607Z,15.02
2023-03-25T11:10:58.055Z,15.11
2023-03-25T11:16:08.536Z,15.18
2023-03-25T11:21:16.939Z,15.18
2023-03-25T11:26:27.171Z,15.23
2023-03-25T11:31:39.452Z,15.34
2023-03-25T11:36:55.410Z,15.43
2023-03-25T11:42:11.520Z,15.57
2023-03-25T11:47:22.815Z,15.55
2023-03-25T11:52:38.303Z,15.50
2023-03-25T11:57:46.513Z,15.53
2023-03-25T12:03:02.601Z,15.33
2023-03-25T12:08:17.482Z,14.75
2023-03-25T12:13:45.701Z,14.02
2023-03-25T12:19:07.308Z,13.40
2023-03-25T12:24:30.535Z,12.95
2023-03-25T12:29:48.868Z,12.55
2023-03-25T12:35:08.764Z,12.04
2023-03-25T12:40:38.255Z,11.73
2023-03-25T12:45:59.548Z,11.59
2023-03-25T12:51:15.135Z,11.51
2023-03-25T12:56:43.282Z,11.54
2023-03-25T13:01:59.862Z,11.76
2023-03-25T13:07:11.624Z,12.00
2023-03-25T13:12:32.553Z,12.30
2023-03-25T13:17:47.979Z,12.79
2023-03-25T13:23:02.522Z,13.17
2023-03-25T13:28:15.470Z,13.29
2023-03-25T13:34:06.893Z,13.05
2023-03-25T13:39:20.040Z,12.89
2023-03-25T13:44:33.788Z,12.92
2023-03-25T13:49:47.861Z,13.05
2023-03-25T13:55:01.889Z,13.23
2023-03-25T14:00:55.475Z,13.37
2023-03-25T14:06:47.746Z,13.48
2023-03-25T14:12:04.263Z,13.61
2023-03-25T14:17:14.544Z,13.58
2023-03-25T14:22:27.923Z,13.58
2023-03-25T14:27:38.159Z,13.56
2023-03-25T14:32:46.815Z,13.43
2023-03-25T14:37:54.885Z,13.38
2023-03-25T14:43:02.844Z,13.38
2023-03-25T14:48:27.943Z,13.39
2023-03-25T14:53:36.572Z,13.41
2023-03-25T14:58:46.302Z,13.43
2023-03-25T15:04:13.647Z,13.42
2023-03-25T15:09:23.563Z,13.33
2023-03-25T15:14:37.473Z,13.23
2023-03-25T15:20:28.245Z,13.17
2023-03-25T15:25:38.309Z,13.07
2023-03-25T15:31:14.721Z,12.97
2023-03-25T15:36:59.170Z,12.82
2023-03-25T15:42:22.847Z,12.66
2023-03-25T15:47:48.133Z,12.52
2023-03-25T15:53:15.058Z,12.41
2023-03-25T15:58:32.173Z,12.33
2023-03-25T16:03:39.468Z,12.23
2023-03-25T16:08:50.883Z,12.14
2023-03-25T16:14:15.143Z,12.05
2023-03-25T16:19:28.220Z,11.98
2023-03-25T16:24:35.889Z,11.95
2023-03-25T16:29:49.245Z,11.88
2023-03-25T16:34:57.959Z,11.81
2023-03-25T16:40:11.699Z,11.74
2023-03-25T16:45:20.787Z,11.70
2023-03-25T16:50:28.618Z,11.66
2023-03-25T16:55:49.225Z,11.62
2023-03-25T17:00:57.741Z,11.56
2023-03-25T17:06:10.352Z,11.47
2023-03-25T17:11:18.416Z,11.37
2023-03-25T17:16:28.437Z,11.28
2023-03-25T17:21:38.905Z,11.18
2023-03-25T17:27:05.632Z,11.07
2023-03-25T17:32:20.619Z,10.96
2023-03-25T17:37:29.508Z,10.88
2023-03-25T17:42:38.807Z,10.82
2023-03-25T17:47:46.795Z,10.74
2023-03-25T17:52:55.283Z,10.66
2023-03-25T17:58:02.631Z,10.59
2023-03-25T18:03:16.819Z,10.51
2023-03-25T18:08:26.468Z,10.39
2023-03-25T18:13:33.690Z,10.29
2023-03-25T18:18:41.585Z,10.17
2023-03-25T18:23:49.710Z,10.06
2023-03-25T18:28:59.252Z,9.96
2023-03-25T18:34:07.370Z,9.82
2023-03-25T18:39:19.696Z,9.66
2023-03-25T18:44:31.117Z,9.59
2023-03-25T18:49:39.528Z,9.56
2023-03-25T18:54:47.357Z,9.56
2023-03-25T18:59:54.805Z,9.56
2023-03-25T19:05:02.650Z,9.59
2023-03-25T19:10:14.379Z,9.59
2023-03-25T19:15:25.288Z,9.53
2023-03-25T19:20:36.468Z,9.43
2023-03-25T19:25:45.420Z,9.34
2023-03-25T19:30:55.148Z,9.28
2023-03-25T19:36:05.104Z,9.24
2023-03-25T19:41:14.036Z,9.24
2023-03-25T19:46:21.466Z,9.20
2023-03-25T19:51:29.145Z,9.19
2023-03-25T19:56:37.263Z,9.19
2023-03-25T20:01:46.142Z,9.17
2023-03-25T20:06:53.792Z,9.08
2023-03-25T20:12:01.794Z,8.97
2023-03-25T20:17:09.456Z,8.87
2023-03-25T20:22:25.019Z,8.76
2023-03-25T20:27:33.041Z,8.67
2023-03-25T20:32:42.652Z,8.60
2023-03-25T20:37:52.369Z,8.56
2023-03-25T20:43:00.284Z,8.58
2023-03-25T20:48:08.992Z,8.61
2023-03-25T20:53:17.271Z,8.63
2023-03-25T20:58:25.285Z,8.64
2023-03-25T21:03:33.586Z,8.64
2023-03-25T21:08:41.368Z,8.54
2023-03-25T21:13:49.366Z,8.48
2023-03-25T21:19:01.939Z,8.44
2023-03-25T21:24:11.563Z,8.38
2023-03-25T21:29:19.580Z,8.36
2023-03-25T21:34:27.022Z,8.34
2023-03-25T21:39:35.933Z,8.33
2023-03-25T21:44:43.508Z,8.39
2023-03-25T21:49:51.548Z,8.51
2023-03-25T21:54:59.610Z,8.64
2023-03-25T22:00:10.576Z,8.72
2023-03-25T22:05:19.553Z,8.78
2023-03-25T22:10:27.580Z,8.83
2023-03-25T22:15:36.520Z,8.87
2023-03-25T22:20:44.580Z,8.91
2023-03-25T22:25:53.142Z,8.93
2023-03-25T22:31:02.380Z,8.91
2023-03-25T22:36:13.132Z,8.87
2023-03-25T22:41:21.652Z,8.80
2023-03-25T22:46:29.361Z,8.73
2023-03-25T22:51:37.289Z,8.65
2023-03-25T22:56:45.920Z,8.57
2023-03-25T23:01:53.679Z,8.47
2023-03-25T23:07:08.349Z,8.39
2023-03-25T23:12:21.805Z,8.31
2023-03-25T23:17:30.225Z,8.21
2023-03-25T23:22:38.023Z,8.12
2023-03-25T23:27:46.532Z,8.04
2023-03-25T23:32:54.498Z,7.95
2023-03-25T23:38:02.185Z,7.87
2023-03-25T23:43:10.317Z,7.79
2023-03-25T23:48:17.968Z,7.74
2023-03-25T23:53:25.804Z,7.70
2023-03-25T23:58:34.431Z,7.66
